Veale, Indiana
Current Conditions -  °F | °C
As of 11:15 AM on Friday 24 Oct 2014 (Local Time) from KDCY Reporting Station
Haze Haze  
Wind Chill: 59°   Ceiling: 4100
Heat Index: 59°   Visibility: 5mi
Dew Point: 46°   Wind: 8mph
Humidity: 63%   Direction: 200°SSW
Pressure: 30.11"   Gusts: NA
Location:  38.6427°N, 87.1768°W
Report Text: KDCY 241615Z AUTO 20007KT 5SM HZ BKN041 15/08 A3011 RMK AO2 T01480077
Loading
Personal Weather Stations






























Interactive Weather Map
Tropical Storm Tracking
New forecast layout! Learn more

10-Day Weather Forecast

Advertisements
Track Severe Weather on mobile